aviador You're here:

CYZP Decoded Metar

SANDSPIT in BC, CANADA
Report Time2017-08-19 14:00:00
UTC Time2017-08-19 15:00:20
Flight Rules vfr VFR
Wind250° at 08 kt
W.Decomp.*RWY 30: 2.5 kt HW 7.6 kt LCW
W.Rank250° ranks 3
Current wind is below 250° avg. (9.5)
Visibility9999 m
Phenomena:N/A
Clouds:Broken 030 Hf
Overcast 037 Hf
Expected CloudBase > 800 ft AGL from Temp-Dew spread
Ceiling3,000 ft
Temp13°C (ISA -2)
Dew Point11°C (88% RH)
AAT10.5°C
QNH1021 hPa
Density Alt-308 ft
Elevation20 ft
Report Wrong Elevation
Raw Report
CYZP 191400Z AUTO 25008KT 9SM BKN030 OVC037 13/11 A3015 RMK
SLP211=

Extra information for CYZP:More info

Metar Taf Metar & Taf Last 4 Metars F.Rules Stats Wind Profile Meteogram Temp Stats Airport Information Weather charts Add Link Nearby VenuesMetar ALERT Operation Metar Decoded Social comments